createdAt,value
2017-09-15T00:01:37.191Z,8.60
2017-09-15T00:04:05.584Z,8.50
2017-09-15T00:06:33.965Z,8.50
2017-09-15T00:09:02.369Z,8.50
2017-09-15T00:11:31.508Z,8.60
2017-09-15T00:13:59.893Z,8.60
2017-09-15T00:16:28.283Z,8.60
2017-09-15T00:18:56.664Z,8.60
2017-09-15T00:21:25.050Z,8.60
2017-09-15T00:23:53.439Z,8.70
2017-09-15T00:26:22.580Z,8.70
2017-09-15T00:28:50.971Z,8.70
2017-09-15T00:31:19.343Z,8.70
2017-09-15T00:33:47.746Z,8.70
2017-09-15T00:36:16.122Z,8.70
2017-09-15T00:38:44.501Z,8.70
2017-09-15T00:41:12.554Z,8.60
2017-09-15T00:43:40.926Z,8.60
2017-09-15T00:46:09.327Z,8.60
2017-09-15T00:48:37.708Z,8.60
2017-09-15T00:51:05.566Z,8.70
2017-09-15T00:53:34.533Z,8.70
2017-09-15T00:56:02.907Z,8.70
2017-09-15T00:58:31.299Z,8.80
2017-09-15T01:00:59.675Z,8.80
2017-09-15T01:03:28.055Z,8.90
2017-09-15T01:05:56.434Z,9.00
2017-09-15T01:08:24.801Z,9.00
2017-09-15T01:10:52.507Z,9.10
2017-09-15T01:13:20.873Z,9.10
2017-09-15T01:15:49.256Z,9.20
2017-09-15T01:18:17.650Z,9.20
2017-09-15T01:20:46.801Z,9.30
2017-09-15T01:23:15.205Z,9.30
2017-09-15T01:25:43.574Z,9.40
2017-09-15T01:28:11.949Z,9.50
2017-09-15T01:30:40.355Z,9.60
2017-09-15T01:33:08.746Z,9.60
2017-09-15T01:35:37.893Z,9.70
2017-09-15T01:38:06.270Z,9.70
2017-09-15T01:40:34.657Z,9.80
2017-09-15T01:43:03.042Z,9.80
2017-09-15T01:45:31.431Z,9.80
2017-09-15T01:47:59.821Z,9.90
2017-09-15T01:50:28.189Z,9.90
2017-09-15T01:52:56.568Z,9.90
2017-09-15T01:55:25.169Z,9.90
2017-09-15T01:57:54.310Z,10.00
2017-09-15T02:00:22.695Z,9.90
2017-09-15T02:02:51.094Z,10.00
2017-09-15T02:05:19.474Z,10.00
2017-09-15T02:07:47.921Z,10.00
2017-09-15T02:10:16.125Z,10.00
2017-09-15T02:12:44.318Z,10.10
2017-09-15T02:15:12.697Z,10.10
2017-09-15T02:17:41.100Z,10.10
2017-09-15T02:20:10.254Z,10.10
2017-09-15T02:22:38.647Z,10.00
2017-09-15T02:25:07.079Z,10.10
2017-09-15T02:27:35.455Z,10.10
2017-09-15T02:30:03.845Z,10.10
2017-09-15T02:32:32.752Z,10.10
2017-09-15T02:35:01.154Z,10.10
2017-09-15T02:37:29.533Z,10.10
2017-09-15T02:39:57.944Z,10.10
2017-09-15T02:42:26.327Z,10.10
2017-09-15T02:44:54.718Z,10.10
2017-09-15T02:47:23.116Z,10.10
2017-09-15T02:49:52.022Z,10.00
2017-09-15T02:52:20.407Z,10.00
2017-09-15T02:54:48.823Z,9.90
2017-09-15T02:57:17.219Z,9.90
2017-09-15T02:59:45.589Z,9.90
2017-09-15T03:02:13.978Z,9.90
2017-09-15T03:04:42.354Z,9.90
2017-09-15T03:07:10.038Z,9.90
2017-09-15T03:09:38.642Z,10.00
2017-09-15T03:12:07.028Z,10.00
2017-09-15T03:14:35.410Z,10.00
2017-09-15T03:17:03.810Z,10.00
2017-09-15T03:19:32.958Z,10.00
2017-09-15T03:22:01.146Z,10.00
2017-09-15T03:24:29.538Z,10.00
2017-09-15T03:26:57.913Z,10.00
2017-09-15T03:29:26.289Z,10.00
2017-09-15T03:31:54.704Z,10.00
2017-09-15T03:34:23.089Z,10.00
2017-09-15T03:36:51.464Z,10.00
2017-09-15T03:39:19.867Z,10.00
2017-09-15T03:41:48.255Z,10.00
2017-09-15T03:44:16.633Z,10.00
2017-09-15T03:46:45.030Z,10.00
2017-09-15T03:49:13.428Z,10.00
2017-09-15T03:51:42.582Z,10.10
2017-09-15T03:54:10.984Z,10.00
2017-09-15T03:56:39.370Z,10.00
2017-09-15T03:59:07.758Z,10.10
2017-09-15T04:01:36.935Z,10.10
2017-09-15T04:04:05.342Z,10.10
2017-09-15T04:06:33.721Z,10.10
2017-09-15T04:09:02.882Z,10.20
2017-09-15T04:11:31.258Z,10.20
2017-09-15T04:13:59.631Z,10.20
2017-09-15T04:16:28.134Z,10.20
2017-09-15T04:18:56.510Z,10.20
2017-09-15T04:21:24.890Z,10.20
2017-09-15T04:23:53.282Z,10.20
2017-09-15T04:26:22.432Z,10.30
2017-09-15T04:28:50.818Z,10.30
2017-09-15T04:31:19.243Z,10.30
2017-09-15T04:33:48.382Z,10.30
2017-09-15T04:36:16.761Z,10.30
2017-09-15T04:38:45.190Z,10.30
2017-09-15T04:41:14.148Z,10.20
2017-09-15T04:43:42.526Z,10.20
2017-09-15T04:46:10.929Z,10.20
2017-09-15T04:48:39.306Z,10.20
2017-09-15T04:51:07.688Z,10.20
2017-09-15T04:53:36.852Z,10.20
2017-09-15T04:56:05.232Z,10.20
2017-09-15T04:58:33.601Z,10.30
2017-09-15T05:01:02.041Z,10.30
2017-09-15T05:03:30.414Z,10.30
2017-09-15T05:05:59.553Z,10.20
2017-09-15T05:08:28.517Z,10.20
2017-09-15T05:10:56.899Z,10.20
2017-09-15T05:13:25.275Z,10.20
2017-09-15T05:15:53.658Z,10.10
2017-09-15T05:18:22.049Z,10.10
2017-09-15T05:20:50.421Z,10.10
2017-09-15T05:23:18.875Z,10.10
2017-09-15T05:25:47.258Z,10.10
2017-09-15T05:28:15.635Z,10.20
2017-09-15T05:30:44.052Z,10.20
2017-09-15T05:33:12.426Z,10.20
2017-09-15T05:35:40.794Z,10.20
2017-09-15T05:38:09.206Z,10.30
2017-09-15T05:40:37.403Z,10.30
2017-09-15T05:43:05.801Z,10.30
2017-09-15T05:45:34.997Z,10.30
2017-09-15T05:48:03.371Z,10.30
2017-09-15T05:50:32.552Z,10.30
2017-09-15T05:53:01.758Z,10.40
2017-09-15T05:55:30.898Z,10.40
2017-09-15T05:57:59.277Z,10.40
2017-09-15T06:00:27.695Z,10.40
2017-09-15T06:02:56.093Z,10.50
2017-09-15T06:05:25.234Z,10.50
2017-09-15T06:07:54.388Z,10.50
2017-09-15T06:10:22.791Z,10.40
2017-09-15T06:12:51.161Z,10.40
2017-09-15T06:15:19.573Z,10.40
2017-09-15T06:17:48.715Z,10.50
2017-09-15T06:20:17.341Z,10.50
2017-09-15T06:22:45.746Z,10.60
2017-09-15T06:25:14.129Z,10.60
2017-09-15T06:27:42.502Z,10.60
2017-09-15T06:30:11.920Z,10.50
2017-09-15T06:32:40.294Z,10.50
2017-09-15T06:35:08.670Z,10.60
2017-09-15T06:37:37.069Z,10.60
2017-09-15T06:40:06.211Z,10.80
2017-09-15T06:42:34.412Z,10.80
2017-09-15T06:45:02.804Z,11.00
2017-09-15T06:47:31.178Z,11.10
2017-09-15T06:49:59.550Z,11.10
2017-09-15T06:52:27.956Z,11.00
2017-09-15T06:54:57.095Z,11.00
2017-09-15T06:57:25.466Z,11.00
2017-09-15T06:59:53.873Z,11.00
2017-09-15T07:02:22.257Z,11.10
2017-09-15T07:04:50.637Z,11.10
2017-09-15T07:07:19.050Z,11.10
2017-09-15T07:09:47.423Z,11.10
2017-09-15T07:12:16.557Z,11.10
2017-09-15T07:14:45.058Z,11.10
2017-09-15T07:17:13.433Z,11.20
2017-09-15T07:19:41.806Z,11.30
2017-09-15T07:22:10.197Z,11.40
2017-09-15T07:24:38.568Z,11.60
2017-09-15T07:27:06.945Z,11.70
2017-09-15T07:29:35.492Z,11.80
2017-09-15T07:32:03.875Z,11.80
2017-09-15T07:34:32.249Z,11.70
2017-09-15T07:37:00.637Z,11.60
2017-09-15T07:39:29.014Z,11.70
2017-09-15T07:41:57.387Z,11.60
2017-09-15T07:44:25.798Z,11.70
2017-09-15T07:46:53.984Z,11.80
2017-09-15T07:49:22.361Z,11.70
2017-09-15T07:51:50.779Z,11.60
2017-09-15T07:54:18.986Z,11.50
2017-09-15T07:56:47.374Z,11.50
2017-09-15T07:59:15.586Z,11.40
2017-09-15T08:01:44.729Z,11.40
2017-09-15T08:04:13.117Z,11.30
2017-09-15T08:06:41.533Z,11.30
2017-09-15T08:09:10.773Z,11.50
2017-09-15T08:11:39.150Z,11.40
2017-09-15T08:14:07.565Z,11.50
2017-09-15T08:16:35.269Z,11.50
2017-09-15T08:19:04.225Z,11.50
2017-09-15T08:21:32.624Z,11.50
2017-09-15T08:24:01.801Z,11.50
2017-09-15T08:26:31.186Z,11.50
2017-09-15T08:28:59.598Z,11.50
2017-09-15T08:31:28.783Z,11.40
2017-09-15T08:33:58.176Z,11.60
2017-09-15T08:36:26.590Z,11.60
2017-09-15T08:38:55.554Z,12.30
2017-09-15T08:41:23.942Z,12.30
2017-09-15T08:43:52.148Z,12.40
2017-09-15T08:46:20.530Z,12.40
2017-09-15T08:48:48.737Z,12.40
2017-09-15T08:51:16.955Z,12.40
2017-09-15T08:53:46.332Z,12.40
2017-09-15T08:56:14.721Z,12.40
2017-09-15T09:01:36.101Z,12.20
2017-09-15T09:04:04.518Z,12.10
2017-09-15T09:06:32.729Z,12.00
2017-09-15T09:09:00.915Z,11.60
2017-09-15T09:11:29.309Z,11.60
2017-09-15T09:13:57.702Z,11.20
2017-09-15T09:16:26.087Z,11.10
2017-09-15T09:18:54.481Z,11.10
2017-09-15T09:21:22.856Z,11.10
2017-09-15T09:23:51.237Z,11.20
2017-09-15T09:26:19.631Z,11.30
2017-09-15T09:28:48.026Z,11.30
2017-09-15T09:31:17.161Z,11.40
2017-09-15T09:33:45.557Z,11.30
2017-09-15T09:36:13.968Z,11.50
2017-09-15T09:38:43.125Z,11.80
2017-09-15T09:41:11.522Z,11.80
2017-09-15T09:43:39.920Z,11.80
2017-09-15T09:46:09.061Z,11.60
2017-09-15T09:48:37.470Z,11.60
2017-09-15T09:51:05.874Z,11.70
2017-09-15T09:53:35.046Z,12.40
2017-09-15T09:56:03.522Z,12.40
2017-09-15T09:58:31.918Z,12.80
2017-09-15T10:01:00.301Z,13.30
2017-09-15T10:03:29.501Z,13.40
2017-09-15T10:05:58.668Z,13.50
2017-09-15T10:08:27.057Z,13.50
2017-09-15T10:10:55.461Z,13.20
2017-09-15T10:13:24.633Z,13.70
2017-09-15T10:15:52.825Z,13.60
2017-09-15T10:18:21.247Z,14.00
2017-09-15T10:20:49.634Z,14.00
2017-09-15T10:23:18.036Z,13.90
2017-09-15T10:25:46.434Z,13.60
2017-09-15T10:28:14.839Z,13.20
2017-09-15T10:30:43.977Z,12.70
2017-09-15T10:33:13.065Z,12.70
2017-09-15T10:35:41.547Z,12.80
2017-09-15T10:38:10.357Z,13.30
2017-09-15T10:40:39.472Z,13.60
2017-09-15T10:43:07.949Z,13.80
2017-09-15T10:45:37.195Z,14.20
2017-09-15T10:48:05.718Z,14.20
2017-09-15T10:50:34.157Z,14.20
2017-09-15T10:53:02.674Z,14.00
2017-09-15T10:55:31.077Z,13.70
2017-09-15T10:58:04.863Z,13.50
2017-09-15T11:00:33.546Z,13.40
2017-09-15T11:03:01.937Z,13.30
2017-09-15T11:05:30.315Z,13.00
2017-09-15T11:07:58.708Z,12.90
2017-09-15T11:10:27.857Z,12.60
2017-09-15T11:12:56.349Z,12.60
2017-09-15T11:15:25.545Z,12.70
2017-09-15T11:17:53.921Z,12.70
2017-09-15T11:20:22.286Z,12.90
2017-09-15T11:22:50.686Z,13.10
2017-09-15T11:25:19.052Z,13.00
2017-09-15T11:27:47.442Z,12.80
2017-09-15T11:30:15.877Z,12.70
2017-09-15T11:32:44.259Z,12.50
2017-09-15T11:35:12.446Z,12.30
2017-09-15T11:37:40.846Z,12.20
2017-09-15T11:40:09.229Z,12.30
2017-09-15T11:42:37.598Z,12.30
2017-09-15T11:45:05.999Z,12.40
2017-09-15T11:47:34.365Z,12.60
2017-09-15T11:50:02.741Z,12.80
2017-09-15T11:52:31.134Z,12.90
2017-09-15T11:54:59.502Z,12.80
2017-09-15T11:57:27.884Z,12.60
2017-09-15T11:59:56.294Z,12.50
2017-09-15T12:02:25.431Z,12.50
2017-09-15T12:04:53.811Z,12.40
2017-09-15T12:07:22.013Z,12.40
2017-09-15T12:09:50.203Z,12.40
2017-09-15T12:12:19.347Z,12.30
2017-09-15T12:14:47.757Z,12.20
2017-09-15T12:17:16.143Z,12.10
2017-09-15T12:19:44.513Z,11.90
2017-09-15T12:22:12.900Z,11.70
2017-09-15T12:24:41.282Z,11.90
2017-09-15T12:27:10.421Z,13.10
2017-09-15T12:29:38.821Z,13.10
2017-09-15T12:32:07.194Z,14.00
2017-09-15T12:34:35.567Z,14.40
2017-09-15T12:37:03.976Z,14.80
2017-09-15T12:39:32.352Z,15.20
2017-09-15T12:42:00.729Z,15.40
2017-09-15T12:44:29.129Z,15.50
2017-09-15T12:46:58.322Z,15.40
2017-09-15T12:49:26.690Z,15.40
2017-09-15T12:51:55.085Z,15.10
2017-09-15T12:54:24.233Z,15.00
2017-09-15T12:56:52.614Z,15.00
2017-09-15T12:59:21.014Z,15.10
2017-09-15T13:01:49.385Z,15.70
2017-09-15T13:04:17.757Z,16.30
2017-09-15T13:06:46.161Z,16.20
2017-09-15T13:09:14.542Z,16.10
2017-09-15T13:11:43.739Z,15.80
2017-09-15T13:14:12.161Z,15.80
2017-09-15T13:16:40.652Z,16.00
2017-09-15T13:19:08.712Z,16.10
2017-09-15T13:21:37.129Z,15.90
2017-09-15T13:24:05.607Z,15.60
2017-09-15T13:26:34.761Z,15.00
2017-09-15T13:29:03.173Z,15.00
2017-09-15T13:31:31.550Z,15.60
2017-09-15T13:33:59.937Z,16.20
2017-09-15T13:36:28.325Z,16.30
2017-09-15T13:38:56.537Z,16.00
2017-09-15T13:41:24.990Z,15.60
2017-09-15T13:43:53.451Z,15.70
2017-09-15T13:46:21.642Z,15.80
2017-09-15T13:48:50.028Z,15.40
2017-09-15T13:51:19.219Z,13.80
2017-09-15T13:53:48.396Z,13.40
2017-09-15T13:56:16.776Z,13.40
2017-09-15T13:58:45.173Z,13.20
2017-09-15T14:01:13.605Z,13.10
2017-09-15T14:03:42.015Z,12.90
2017-09-15T14:06:10.083Z,12.60
2017-09-15T14:08:39.494Z,12.40
2017-09-15T14:11:07.684Z,12.40
2017-09-15T14:13:36.682Z,11.80
2017-09-15T14:16:05.644Z,11.50
2017-09-15T14:18:34.033Z,11.40
2017-09-15T14:21:02.460Z,11.30
2017-09-15T14:23:30.860Z,11.20
2017-09-15T14:25:59.243Z,11.20
2017-09-15T14:28:27.652Z,11.30
2017-09-15T14:30:56.030Z,11.40
2017-09-15T14:33:25.194Z,11.60
2017-09-15T14:35:53.609Z,11.60
2017-09-15T14:38:21.834Z,11.80
2017-09-15T14:40:50.030Z,11.80
2017-09-15T14:43:18.450Z,11.90
2017-09-15T14:45:47.601Z,12.10
2017-09-15T14:48:35.739Z,12.00
2017-09-15T14:51:04.138Z,12.10
2017-09-15T14:53:32.531Z,12.10
2017-09-15T14:56:00.948Z,12.10
2017-09-15T14:58:29.322Z,12.30
2017-09-15T15:00:57.704Z,12.40
2017-09-15T15:03:25.906Z,12.50
2017-09-15T15:05:54.290Z,12.60
2017-09-15T15:08:22.661Z,12.70
2017-09-15T15:10:51.075Z,12.70
2017-09-15T15:13:20.246Z,12.90
2017-09-15T15:15:48.633Z,12.90
2017-09-15T15:18:17.030Z,13.10
2017-09-15T15:20:46.178Z,13.00
2017-09-15T15:23:14.559Z,13.00
2017-09-15T15:25:42.957Z,13.10
2017-09-15T15:28:11.343Z,12.80
2017-09-15T15:30:39.726Z,12.70
2017-09-15T15:33:07.940Z,12.40
2017-09-15T15:35:36.330Z,12.40
2017-09-15T15:38:04.720Z,12.50
2017-09-15T15:40:33.131Z,12.60
2017-09-15T15:43:01.519Z,12.60
2017-09-15T15:45:29.927Z,12.70
2017-09-15T15:47:58.326Z,12.70
2017-09-15T15:50:26.643Z,12.90
2017-09-15T15:52:55.024Z,13.00
2017-09-15T15:55:25.850Z,13.00
2017-09-15T15:57:54.238Z,13.00
2017-09-15T16:00:22.623Z,13.10
2017-09-15T16:02:51.016Z,12.90
2017-09-15T16:05:20.166Z,12.70
2017-09-15T16:07:48.554Z,12.60
2017-09-15T16:10:16.964Z,12.60
2017-09-15T16:12:46.130Z,12.40
2017-09-15T16:15:14.511Z,12.40
2017-09-15T16:17:42.923Z,12.10
2017-09-15T16:20:12.075Z,11.90
2017-09-15T16:22:40.460Z,11.90
2017-09-15T16:25:08.870Z,11.80
2017-09-15T16:27:37.831Z,11.60
2017-09-15T16:30:06.035Z,11.60
2017-09-15T16:32:35.065Z,11.70
2017-09-15T16:35:03.271Z,11.60
2017-09-15T16:37:30.973Z,11.60
2017-09-15T16:40:05.693Z,11.40
2017-09-15T16:42:40.420Z,11.40
2017-09-15T16:45:15.224Z,11.30
2017-09-15T16:47:49.824Z,11.20
2017-09-15T16:50:18.278Z,11.20
2017-09-15T16:52:46.707Z,10.90
2017-09-15T16:55:15.086Z,10.80
2017-09-15T16:57:43.490Z,10.60
2017-09-15T17:00:12.698Z,10.40
2017-09-15T17:02:41.655Z,10.30
2017-09-15T17:05:09.870Z,10.30
2017-09-15T17:07:38.066Z,10.20
2017-09-15T17:10:06.298Z,10.20
2017-09-15T17:12:35.475Z,10.10
2017-09-15T17:15:04.009Z,10.10
2017-09-15T17:17:32.413Z,10.10
2017-09-15T17:20:00.816Z,10.10
2017-09-15T17:22:29.202Z,10.00
2017-09-15T17:25:01.115Z,10.00
2017-09-15T17:27:29.514Z,10.00
2017-09-15T17:29:57.883Z,9.90
2017-09-15T17:32:26.099Z,9.90
2017-09-15T17:34:55.303Z,9.80
2017-09-15T17:37:24.455Z,9.70
2017-09-15T17:39:52.944Z,9.70
2017-09-15T17:42:21.338Z,9.60
2017-09-15T17:44:49.724Z,9.60
2017-09-15T17:47:17.931Z,9.50
2017-09-15T17:49:46.323Z,9.50
2017-09-15T17:52:14.724Z,9.40
2017-09-15T17:54:43.896Z,9.30
2017-09-15T17:57:12.293Z,9.30
2017-09-15T17:59:40.678Z,9.30
2017-09-15T18:02:08.895Z,9.30
2017-09-15T18:04:37.857Z,9.20
2017-09-15T18:07:06.242Z,9.10
2017-09-15T18:09:34.475Z,9.10
2017-09-15T18:12:02.895Z,9.00
2017-09-15T18:14:31.273Z,8.90
2017-09-15T18:16:59.666Z,8.90
2017-09-15T18:19:28.826Z,8.80
2017-09-15T18:21:57.203Z,8.70
2017-09-15T18:24:25.631Z,8.70
2017-09-15T18:26:54.846Z,8.60
2017-09-15T18:29:23.328Z,8.60
2017-09-15T18:31:52.240Z,8.60
2017-09-15T18:34:20.730Z,8.60
2017-09-15T18:36:49.968Z,8.70
2017-09-15T18:39:18.443Z,8.60
2017-09-15T18:41:47.113Z,8.60
2017-09-15T18:44:16.037Z,8.50
2017-09-15T18:46:44.605Z,8.50
2017-09-15T18:49:15.437Z,8.40
2017-09-15T18:51:43.913Z,8.40
2017-09-15T18:54:12.336Z,8.40
2017-09-15T18:56:40.572Z,8.40
2017-09-15T18:59:09.115Z,8.30
2017-09-15T19:01:37.526Z,8.30
2017-09-15T19:04:05.908Z,8.30
2017-09-15T19:06:34.317Z,8.30
2017-09-15T19:09:02.708Z,8.20
2017-09-15T19:11:31.129Z,8.20
2017-09-15T19:13:59.567Z,8.20
2017-09-15T19:16:27.982Z,8.10
2017-09-15T19:18:56.376Z,8.10
2017-09-15T19:21:24.790Z,8.10
2017-09-15T19:23:53.159Z,8.00
2017-09-15T19:26:22.317Z,8.00
2017-09-15T19:28:50.721Z,8.00
2017-09-15T19:31:19.861Z,8.00
2017-09-15T19:33:48.239Z,8.00
2017-09-15T19:36:16.665Z,8.00
2017-09-15T19:38:45.042Z,8.00
2017-09-15T19:41:13.468Z,8.00
2017-09-15T19:43:41.871Z,8.10
2017-09-15T19:46:10.250Z,8.00
2017-09-15T19:48:38.623Z,8.00
2017-09-15T19:51:07.018Z,8.10
2017-09-15T19:53:35.406Z,8.10
2017-09-15T19:56:03.785Z,8.00
2017-09-15T19:58:32.191Z,8.10
2017-09-15T20:01:01.351Z,8.10
2017-09-15T20:03:29.726Z,8.00
2017-09-15T20:05:58.250Z,8.10
2017-09-15T20:08:27.398Z,8.00
2017-09-15T20:10:55.586Z,8.00
2017-09-15T20:13:24.404Z,8.00
2017-09-15T20:15:53.653Z,8.00
2017-09-15T20:18:22.246Z,8.00
2017-09-15T20:20:50.852Z,8.00
2017-09-15T20:23:19.238Z,8.10
2017-09-15T20:25:48.376Z,8.10
2017-09-15T20:28:16.930Z,8.10
2017-09-15T20:30:46.074Z,8.10
2017-09-15T20:33:14.471Z,8.10
2017-09-15T20:35:43.272Z,8.10
2017-09-15T20:38:11.647Z,8.10
2017-09-15T20:40:40.029Z,8.10
2017-09-15T20:43:08.614Z,8.20
2017-09-15T20:45:37.760Z,8.10
2017-09-15T20:48:06.157Z,8.10
2017-09-15T20:50:34.886Z,8.10
2017-09-15T20:53:03.865Z,8.00
2017-09-15T20:55:32.238Z,8.00
2017-09-15T20:58:01.133Z,8.00
2017-09-15T21:00:29.510Z,7.90
2017-09-15T21:02:57.877Z,7.90
2017-09-15T21:05:26.467Z,7.90
2017-09-15T21:07:54.847Z,7.80
2017-09-15T21:10:23.226Z,7.70
2017-09-15T21:12:51.648Z,7.80
2017-09-15T21:15:20.032Z,7.80
2017-09-15T21:17:48.421Z,7.70
2017-09-15T21:20:17.170Z,7.70
2017-09-15T21:22:45.604Z,7.70
2017-09-15T21:25:13.890Z,7.70
2017-09-15T21:27:42.560Z,7.70
2017-09-15T21:30:11.070Z,7.80
2017-09-15T21:32:39.490Z,7.90
2017-09-15T21:35:07.975Z,7.90
2017-09-15T21:37:36.366Z,7.90
2017-09-15T21:40:04.852Z,7.90
2017-09-15T21:42:33.691Z,7.90
2017-09-15T21:45:02.988Z,7.80
2017-09-15T21:47:31.378Z,7.80
2017-09-15T21:50:00.159Z,7.80
2017-09-15T21:52:28.610Z,7.80
2017-09-15T21:54:56.720Z,7.70
2017-09-15T21:57:25.177Z,7.70
2017-09-15T21:59:54.367Z,7.60
2017-09-15T22:02:22.803Z,7.50
2017-09-15T22:04:51.294Z,7.60
2017-09-15T22:07:19.666Z,7.50
2017-09-15T22:09:48.065Z,7.50
2017-09-15T22:12:16.509Z,7.50
2017-09-15T22:14:44.891Z,7.60
2017-09-15T22:17:12.996Z,7.60
2017-09-15T22:19:41.703Z,7.60
2017-09-15T22:22:10.917Z,7.50
2017-09-15T22:24:39.396Z,7.50
2017-09-15T22:27:08.386Z,7.40
2017-09-15T22:29:37.597Z,7.30
2017-09-15T22:32:05.995Z,7.30
2017-09-15T22:34:34.402Z,7.30
2017-09-15T22:37:02.814Z,7.30
2017-09-15T22:39:31.959Z,7.30
2017-09-15T22:42:00.462Z,7.30
2017-09-15T22:44:29.663Z,7.30
2017-09-15T22:46:58.856Z,7.30
2017-09-15T22:49:27.274Z,7.30
2017-09-15T22:51:56.410Z,7.30
2017-09-15T22:54:32.202Z,7.30
2017-09-15T22:57:00.581Z,7.20
2017-09-15T22:59:28.958Z,7.30
2017-09-15T23:01:57.490Z,7.20
2017-09-15T23:04:25.879Z,7.20
2017-09-15T23:06:54.257Z,7.20
2017-09-15T23:09:23.126Z,7.20
2017-09-15T23:11:51.494Z,7.10
2017-09-15T23:14:19.874Z,7.10
2017-09-15T23:16:48.589Z,7.10
2017-09-15T23:19:16.966Z,7.00
2017-09-15T23:21:45.354Z,7.00
2017-09-15T23:24:13.766Z,7.00
2017-09-15T23:26:42.933Z,7.00
2017-09-15T23:29:11.373Z,7.00
2017-09-15T23:31:39.929Z,7.10
2017-09-15T23:34:09.074Z,7.10
2017-09-15T23:36:37.463Z,7.10
2017-09-15T23:39:06.619Z,7.20
2017-09-15T23:41:35.767Z,7.20
2017-09-15T23:44:22.510Z,7.20
2017-09-15T23:46:51.658Z,7.10
2017-09-15T23:49:20.053Z,7.10
2017-09-15T23:51:49.060Z,7.10
2017-09-15T23:54:17.247Z,7.10
2017-09-15T23:56:46.202Z,7.00
2017-09-15T23:59:15.905Z,7.00
